Impacts TAF Board INFO
FOR SITUATIONAL AWARENESS. NOT TO BE USED FOR FLIGHT PLANNING PURPOSES.
IDs:

KPHX - Phoenix/Sky Harbor, AZ, US

Issued at 1430 UTC 20 May 2018
Updated at 1547 UTC 20 May 2018
Potential Impact None Slight Moderate High
Time1451Z 20/16Z 20/17Z 20/18Z 20/19Z 20/20Z 20/21Z 20/22Z 20/23Z 21/00Z 21/01Z 21/02Z 21/03Z 21/04Z>>
Type OBS PRVL PRVL PRVL PRVL PRVL PRVL PRVL PRVL PRVL PRVL PRVL PRVL PRVL
VIS 10 >6 >6 >6 >6 >6 >6 >6 >6 >6 >6 >6 >6 >6
CIG -- -- -- -- -- -- -- -- -- -- -- -- -- --
Cover FEW FEW FEW FEW FEW FEW FEW FEW FEW FEW FEW FEW FEW FEW
FltCat VFR VFR VFR VFR VFR VFR VFR VFR VFR VFR VFR VFR VFR VFR
WX -- -- -- -- -- -- -- -- -- -- -- -- -- --
WDir 90 110 110 110 110 110 240 240 240 240 270 270 270 270
WSpd 6 8 8 8 8 8 7 7 7 7 12 12 12 12
WGst -- -- -- -- -- -- -- -- -- -- -- -- -- --

Raw TAF
KPHX 201430Z 2015/2118 11008KT P6SM FEW250
  FM202100 24007KT P6SM FEW250
  FM210100 27012KT P6SM FEW250
  FM210500 26007KT P6SM FEW250
  FM210900 09006KT P6SM SCT220


Raw METAR
KPHX 201451Z 09006KT 10SM FEW250 24/01 A2984 RMK AO2 SLP087 T02440011 51017
KPHX 201351Z 11008KT 10SM FEW250 23/01 A2983 RMK AO2 SLP083 T02280006
KPHX 201251Z 09008KT 10SM FEW250 22/03 A2981 RMK AO2 SLP075 T02220028

METAR Board
Radar Display
Forecast Discussion

FOR SITUATIONAL AWARENESS. NOT TO BE USED FOR FLIGHT PLANNING PURPOSES.